Condon, Montana
Current Conditions -  °F | °C
As of 1:53 PM on Wednesday 26 Nov 2014 (Local Time) from KMSO Reporting Station
Haze Haze  
Wind Chill: 34°   Ceiling: 4100
Heat Index: 34°   Visibility: 6mi
Dew Point: 33°   Wind: 0mph
Humidity: 96%   Direction: NA
Pressure: 30.18"   Gusts: NA
Location:  47.53°N, 113.71°W
Report Text: KMSO 262053Z 00000KT 6SM BR BKN041 OVC055 01/01 A3018 RMK AO2 UPE02RAB02E26 SLP246 P0000 60001 T00110006 58005
Loading
Personal Weather Stations






























Interactive Weather Map New forecast layout! Learn more

10-Day Weather Forecast

Advertisements
Track Severe Weather on mobile